sensor_id;sensor_type;location;lat;lon;timestamp;temperature;humidity
19870;DHT22;10097;50.862;4.696;2022-09-09T00:02:26;14.90;99.90
19870;DHT22;10097;50.862;4.696;2022-09-09T00:05:17;15.00;99.90
19870;DHT22;10097;50.862;4.696;2022-09-09T00:07:51;14.90;99.90
19870;DHT22;10097;50.862;4.696;2022-09-09T00:20:48;15.00;99.90
19870;DHT22;10097;50.862;4.696;2022-09-09T00:23:39;15.00;99.90
19870;DHT22;10097;50.862;4.696;2022-09-09T00:28:34;15.10;99.90
19870;DHT22;10097;50.862;4.696;2022-09-09T00:31:18;15.10;99.90
19870;DHT22;10097;50.862;4.696;2022-09-09T00:33:46;15.00;99.90
19870;DHT22;10097;50.862;4.696;2022-09-09T00:36:16;15.00;99.90
19870;DHT22;10097;50.862;4.696;2022-09-09T00:38:52;14.90;99.90
19870;DHT22;10097;50.862;4.696;2022-09-09T00:42:02;15.00;99.90
19870;DHT22;10097;50.862;4.696;2022-09-09T00:44:31;15.00;99.90
19870;DHT22;10097;50.862;4.696;2022-09-09T00:50:03;15.00;99.90
19870;DHT22;10097;50.862;4.696;2022-09-09T00:52:42;15.00;99.90
19870;DHT22;10097;50.862;4.696;2022-09-09T00:55:25;15.00;99.90
19870;DHT22;10097;50.862;4.696;2022-09-09T00:57:53;15.00;99.90
19870;DHT22;10097;50.862;4.696;2022-09-09T01:03:14;15.20;99.90
19870;DHT22;10097;50.862;4.696;2022-09-09T01:11:26;15.30;99.90
19870;DHT22;10097;50.862;4.696;2022-09-09T01:17:23;15.30;99.90
19870;DHT22;10097;50.862;4.696;2022-09-09T01:20:08;15.20;99.90
19870;DHT22;10097;50.862;4.696;2022-09-09T01:23:03;15.30;99.90
19870;DHT22;10097;50.862;4.696;2022-09-09T01:28:16;15.30;99.90
19870;DHT22;10097;50.862;4.696;2022-09-09T01:30:47;15.20;99.90
19870;DHT22;10097;50.862;4.696;2022-09-09T01:33:17;15.20;99.90
19870;DHT22;10097;50.862;4.696;2022-09-09T01:35:57;15.30;99.90
19870;DHT22;10097;50.862;4.696;2022-09-09T01:38:26;15.30;99.90
19870;DHT22;10097;50.862;4.696;2022-09-09T01:40:52;15.40;99.90
19870;DHT22;10097;50.862;4.696;2022-09-09T01:43:20;15.40;99.90
19870;DHT22;10097;50.862;4.696;2022-09-09T01:45:48;15.30;99.90
19870;DHT22;10097;50.862;4.696;2022-09-09T01:48:15;15.30;99.90
19870;DHT22;10097;50.862;4.696;2022-09-09T01:50:41;15.30;99.90
19870;DHT22;10097;50.862;4.696;2022-09-09T01:53:07;15.30;99.90
19870;DHT22;10097;50.862;4.696;2022-09-09T01:56:07;15.40;99.90
19870;DHT22;10097;50.862;4.696;2022-09-09T02:02:08;15.40;99.90
19870;DHT22;10097;50.862;4.696;2022-09-09T02:04:39;15.40;99.90
19870;DHT22;10097;50.862;4.696;2022-09-09T02:09:43;15.40;99.90
19870;DHT22;10097;50.862;4.696;2022-09-09T02:12:15;15.30;99.90
19870;DHT22;10097;50.862;4.696;2022-09-09T02:14:48;15.30;99.90
19870;DHT22;10097;50.862;4.696;2022-09-09T02:17:19;15.30;99.90
19870;DHT22;10097;50.862;4.696;2022-09-09T02:19:51;15.30;99.90
19870;DHT22;10097;50.862;4.696;2022-09-09T02:22:22;15.30;99.90
19870;DHT22;10097;50.862;4.696;2022-09-09T02:24:49;15.30;99.90
19870;DHT22;10097;50.862;4.696;2022-09-09T02:27:18;15.30;99.90
19870;DHT22;10097;50.862;4.696;2022-09-09T02:29:45;15.20;99.90
19870;DHT22;10097;50.862;4.696;2022-09-09T02:32:15;15.10;99.90
19870;DHT22;10097;50.862;4.696;2022-09-09T02:34:49;15.10;99.90
19870;DHT22;10097;50.862;4.696;2022-09-09T02:37:19;15.10;99.90
19870;DHT22;10097;50.862;4.696;2022-09-09T02:39:46;15.10;99.90
19870;DHT22;10097;50.862;4.696;2022-09-09T02:42:12;15.20;99.90
19870;DHT22;10097;50.862;4.696;2022-09-09T02:44:40;15.20;99.90
19870;DHT22;10097;50.862;4.696;2022-09-09T02:53:18;15.30;99.90
19870;DHT22;10097;50.862;4.696;2022-09-09T02:56:08;15.20;99.90
19870;DHT22;10097;50.862;4.696;2022-09-09T02:58:35;15.20;99.90
19870;DHT22;10097;50.862;4.696;2022-09-09T03:01:01;15.20;99.90
19870;DHT22;10097;50.862;4.696;2022-09-09T03:03:28;15.30;99.90
19870;DHT22;10097;50.862;4.696;2022-09-09T03:05:55;15.30;99.90
19870;DHT22;10097;50.862;4.696;2022-09-09T03:08:22;15.20;99.90
19870;DHT22;10097;50.862;4.696;2022-09-09T03:10:48;15.20;99.90
19870;DHT22;10097;50.862;4.696;2022-09-09T03:13:14;15.30;99.90
19870;DHT22;10097;50.862;4.696;2022-09-09T03:15:41;15.20;99.90
19870;DHT22;10097;50.862;4.696;2022-09-09T03:18:06;15.30;99.90
19870;DHT22;10097;50.862;4.696;2022-09-09T03:20:32;15.30;99.90
19870;DHT22;10097;50.862;4.696;2022-09-09T03:22:59;15.30;99.90
19870;DHT22;10097;50.862;4.696;2022-09-09T03:25:25;15.30;99.90
19870;DHT22;10097;50.862;4.696;2022-09-09T03:27:52;15.30;99.90
19870;DHT22;10097;50.862;4.696;2022-09-09T03:30:27;15.30;99.90
19870;DHT22;10097;50.862;4.696;2022-09-09T03:32:53;15.30;99.90
19870;DHT22;10097;50.862;4.696;2022-09-09T03:35:20;15.30;99.90
19870;DHT22;10097;50.862;4.696;2022-09-09T03:37:46;15.30;99.90
19870;DHT22;10097;50.862;4.696;2022-09-09T03:40:14;15.30;99.90
19870;DHT22;10097;50.862;4.696;2022-09-09T03:42:40;15.30;99.90
19870;DHT22;10097;50.862;4.696;2022-09-09T03:45:10;15.30;99.90
19870;DHT22;10097;50.862;4.696;2022-09-09T03:47:36;15.20;99.90
19870;DHT22;10097;50.862;4.696;2022-09-09T03:50:03;15.30;99.90
19870;DHT22;10097;50.862;4.696;2022-09-09T03:52:31;15.20;99.90
19870;DHT22;10097;50.862;4.696;2022-09-09T03:54:57;15.20;99.90
19870;DHT22;10097;50.862;4.696;2022-09-09T03:57:23;15.20;99.90
19870;DHT22;10097;50.862;4.696;2022-09-09T03:59:48;15.20;99.90
19870;DHT22;10097;50.862;4.696;2022-09-09T04:02:16;15.20;99.90
19870;DHT22;10097;50.862;4.696;2022-09-09T04:04:42;15.20;99.90
19870;DHT22;10097;50.862;4.696;2022-09-09T04:07:08;15.10;99.90
19870;DHT22;10097;50.862;4.696;2022-09-09T04:09:33;15.10;99.90
19870;DHT22;10097;50.862;4.696;2022-09-09T04:12:00;15.10;99.90
19870;DHT22;10097;50.862;4.696;2022-09-09T04:14:25;15.10;99.90
19870;DHT22;10097;50.862;4.696;2022-09-09T04:16:54;15.20;99.90
19870;DHT22;10097;50.862;4.696;2022-09-09T04:19:21;15.20;99.90
19870;DHT22;10097;50.862;4.696;2022-09-09T04:21:47;15.20;99.90
19870;DHT22;10097;50.862;4.696;2022-09-09T04:24:15;15.20;99.90
19870;DHT22;10097;50.862;4.696;2022-09-09T04:26:41;15.20;99.90
19870;DHT22;10097;50.862;4.696;2022-09-09T04:29:07;15.20;99.90
19870;DHT22;10097;50.862;4.696;2022-09-09T04:31:33;15.30;99.90
19870;DHT22;10097;50.862;4.696;2022-09-09T04:33:59;15.30;99.90
19870;DHT22;10097;50.862;4.696;2022-09-09T04:36:31;15.40;99.90
19870;DHT22;10097;50.862;4.696;2022-09-09T04:38:57;15.30;99.90
19870;DHT22;10097;50.862;4.696;2022-09-09T04:41:23;15.30;99.90
19870;DHT22;10097;50.862;4.696;2022-09-09T04:43:49;15.40;99.90
19870;DHT22;10097;50.862;4.696;2022-09-09T04:46:15;15.40;99.90
19870;DHT22;10097;50.862;4.696;2022-09-09T04:48:43;15.20;99.90
19870;DHT22;10097;50.862;4.696;2022-09-09T04:51:12;15.30;99.90
19870;DHT22;10097;50.862;4.696;2022-09-09T04:53:38;15.20;99.90
19870;DHT22;10097;50.862;4.696;2022-09-09T04:56:08;15.20;99.90
19870;DHT22;10097;50.862;4.696;2022-09-09T04:58:36;15.10;99.90
19870;DHT22;10097;50.862;4.696;2022-09-09T05:01:16;15.10;99.90
19870;DHT22;10097;50.862;4.696;2022-09-09T05:03:45;15.10;99.90
19870;DHT22;10097;50.862;4.696;2022-09-09T05:06:16;15.10;99.90
19870;DHT22;10097;50.862;4.696;2022-09-09T05:08:43;15.10;99.90
19870;DHT22;10097;50.862;4.696;2022-09-09T05:11:23;15.00;99.90
19870;DHT22;10097;50.862;4.696;2022-09-09T05:13:51;15.00;99.90
19870;DHT22;10097;50.862;4.696;2022-09-09T05:16:17;15.10;99.90
19870;DHT22;10097;50.862;4.696;2022-09-09T05:18:44;15.10;99.90
19870;DHT22;10097;50.862;4.696;2022-09-09T05:21:13;15.10;99.90
19870;DHT22;10097;50.862;4.696;2022-09-09T05:23:39;15.10;99.90
19870;DHT22;10097;50.862;4.696;2022-09-09T05:26:06;15.20;99.90
19870;DHT22;10097;50.862;4.696;2022-09-09T05:28:34;15.20;99.90
19870;DHT22;10097;50.862;4.696;2022-09-09T05:31:06;15.30;99.90
19870;DHT22;10097;50.862;4.696;2022-09-09T05:33:37;15.30;99.90
19870;DHT22;10097;50.862;4.696;2022-09-09T05:36:08;15.40;99.90
19870;DHT22;10097;50.862;4.696;2022-09-09T05:38:35;15.50;99.90
19870;DHT22;10097;50.862;4.696;2022-09-09T05:41:02;15.50;99.90
19870;DHT22;10097;50.862;4.696;2022-09-09T05:43:28;15.50;99.90
19870;DHT22;10097;50.862;4.696;2022-09-09T05:46:09;15.60;99.90
19870;DHT22;10097;50.862;4.696;2022-09-09T05:48:39;15.60;99.90
19870;DHT22;10097;50.862;4.696;2022-09-09T05:51:07;15.70;99.90
19870;DHT22;10097;50.862;4.696;2022-09-09T05:53:34;15.80;99.90
19870;DHT22;10097;50.862;4.696;2022-09-09T05:56:22;15.90;99.90
19870;DHT22;10097;50.862;4.696;2022-09-09T05:58:47;15.90;99.90
19870;DHT22;10097;50.862;4.696;2022-09-09T06:01:33;16.00;99.90
19870;DHT22;10097;50.862;4.696;2022-09-09T06:04:00;16.10;99.90
19870;DHT22;10097;50.862;4.696;2022-09-09T06:06:30;16.20;99.90
19870;DHT22;10097;50.862;4.696;2022-09-09T06:08:57;16.20;99.90
19870;DHT22;10097;50.862;4.696;2022-09-09T06:11:25;16.20;99.90
19870;DHT22;10097;50.862;4.696;2022-09-09T06:13:51;16.20;99.90
19870;DHT22;10097;50.862;4.696;2022-09-09T06:16:20;16.30;99.90
19870;DHT22;10097;50.862;4.696;2022-09-09T06:18:48;16.30;99.90
19870;DHT22;10097;50.862;4.696;2022-09-09T06:21:25;16.30;99.90
19870;DHT22;10097;50.862;4.696;2022-09-09T06:23:54;16.40;99.90
19870;DHT22;10097;50.862;4.696;2022-09-09T06:26:22;16.50;99.90
19870;DHT22;10097;50.862;4.696;2022-09-09T06:28:50;16.70;99.90
19870;DHT22;10097;50.862;4.696;2022-09-09T06:31:21;16.80;99.90
19870;DHT22;10097;50.862;4.696;2022-09-09T06:33:49;16.90;99.90
19870;DHT22;10097;50.862;4.696;2022-09-09T06:36:24;16.70;99.90
19870;DHT22;10097;50.862;4.696;2022-09-09T06:38:50;16.90;99.90
19870;DHT22;10097;50.862;4.696;2022-09-09T06:41:24;17.10;99.90
19870;DHT22;10097;50.862;4.696;2022-09-09T06:43:53;17.10;99.90
19870;DHT22;10097;50.862;4.696;2022-09-09T06:46:22;17.10;99.90
19870;DHT22;10097;50.862;4.696;2022-09-09T06:48:51;17.20;99.90
19870;DHT22;10097;50.862;4.696;2022-09-09T06:51:20;17.30;99.90
19870;DHT22;10097;50.862;4.696;2022-09-09T06:53:58;17.50;99.90
19870;DHT22;10097;50.862;4.696;2022-09-09T06:56:39;17.70;99.90
19870;DHT22;10097;50.862;4.696;2022-09-09T06:59:10;17.70;99.90
19870;DHT22;10097;50.862;4.696;2022-09-09T07:01:44;17.70;99.90
19870;DHT22;10097;50.862;4.696;2022-09-09T07:04:13;17.70;99.90
19870;DHT22;10097;50.862;4.696;2022-09-09T07:06:45;17.60;99.90
19870;DHT22;10097;50.862;4.696;2022-09-09T07:09:13;17.60;99.90
19870;DHT22;10097;50.862;4.696;2022-09-09T07:11:45;17.40;99.90
19870;DHT22;10097;50.862;4.696;2022-09-09T07:14:12;17.40;99.90
19870;DHT22;10097;50.862;4.696;2022-09-09T07:16:41;17.60;99.90
19870;DHT22;10097;50.862;4.696;2022-09-09T07:19:10;17.60;99.90
19870;DHT22;10097;50.862;4.696;2022-09-09T07:21:36;17.70;99.90
19870;DHT22;10097;50.862;4.696;2022-09-09T07:24:06;17.60;99.90
19870;DHT22;10097;50.862;4.696;2022-09-09T07:26:34;17.50;99.90
19870;DHT22;10097;50.862;4.696;2022-09-09T07:29:03;17.60;99.90
19870;DHT22;10097;50.862;4.696;2022-09-09T07:31:36;17.80;99.90
19870;DHT22;10097;50.862;4.696;2022-09-09T07:34:06;18.00;99.90
19870;DHT22;10097;50.862;4.696;2022-09-09T07:36:41;18.20;99.90
19870;DHT22;10097;50.862;4.696;2022-09-09T07:39:11;18.10;99.90
19870;DHT22;10097;50.862;4.696;2022-09-09T07:41:47;18.10;99.90
19870;DHT22;10097;50.862;4.696;2022-09-09T07:44:20;17.90;99.90
19870;DHT22;10097;50.862;4.696;2022-09-09T07:46:50;17.70;99.90
19870;DHT22;10097;50.862;4.696;2022-09-09T07:49:15;17.90;99.90
19870;DHT22;10097;50.862;4.696;2022-09-09T07:51:44;17.90;99.90
19870;DHT22;10097;50.862;4.696;2022-09-09T07:54:16;17.90;99.90
19870;DHT22;10097;50.862;4.696;2022-09-09T07:56:48;17.60;99.90
19870;DHT22;10097;50.862;4.696;2022-09-09T07:59:16;17.60;99.90
19870;DHT22;10097;50.862;4.696;2022-09-09T08:01:47;17.70;99.90
19870;DHT22;10097;50.862;4.696;2022-09-09T08:04:17;17.90;99.90
19870;DHT22;10097;50.862;4.696;2022-09-09T08:06:51;17.90;99.90
19870;DHT22;10097;50.862;4.696;2022-09-09T08:09:19;18.00;99.90
19870;DHT22;10097;50.862;4.696;2022-09-09T08:11:57;18.10;99.90
19870;DHT22;10097;50.862;4.696;2022-09-09T08:14:24;18.20;99.90
19870;DHT22;10097;50.862;4.696;2022-09-09T08:16:52;18.60;99.90
19870;DHT22;10097;50.862;4.696;2022-09-09T08:19:23;18.90;99.90
19870;DHT22;10097;50.862;4.696;2022-09-09T08:21:49;18.90;99.90
19870;DHT22;10097;50.862;4.696;2022-09-09T08:24:15;19.00;99.90
19870;DHT22;10097;50.862;4.696;2022-09-09T08:26:45;19.20;99.90
19870;DHT22;10097;50.862;4.696;2022-09-09T08:29:13;19.40;99.90
19870;DHT22;10097;50.862;4.696;2022-09-09T08:31:50;19.50;99.90
19870;DHT22;10097;50.862;4.696;2022-09-09T08:34:19;19.60;99.90
19870;DHT22;10097;50.862;4.696;2022-09-09T08:36:46;19.70;99.90
19870;DHT22;10097;50.862;4.696;2022-09-09T08:39:15;19.90;99.90
19870;DHT22;10097;50.862;4.696;2022-09-09T08:42:13;20.10;99.90
19870;DHT22;10097;50.862;4.696;2022-09-09T08:45:10;19.80;99.90
19870;DHT22;10097;50.862;4.696;2022-09-09T08:53:09;19.50;99.90
19870;DHT22;10097;50.862;4.696;2022-09-09T09:03:43;18.50;99.90
19870;DHT22;10097;50.862;4.696;2022-09-09T09:11:47;18.00;99.90
19870;DHT22;10097;50.862;4.696;2022-09-09T09:14:25;17.90;99.90
19870;DHT22;10097;50.862;4.696;2022-09-09T09:17:00;17.80;99.90
19870;DHT22;10097;50.862;4.696;2022-09-09T09:19:27;17.90;99.90
19870;DHT22;10097;50.862;4.696;2022-09-09T09:22:04;18.00;99.90
19870;DHT22;10097;50.862;4.696;2022-09-09T09:24:55;18.00;99.90
19870;DHT22;10097;50.862;4.696;2022-09-09T09:27:35;17.90;99.90
19870;DHT22;10097;50.862;4.696;2022-09-09T09:30:14;17.90;99.90
19870;DHT22;10097;50.862;4.696;2022-09-09T09:32:42;17.60;99.90
19870;DHT22;10097;50.862;4.696;2022-09-09T09:35:13;17.60;99.90
19870;DHT22;10097;50.862;4.696;2022-09-09T09:37:40;17.60;99.90
19870;DHT22;10097;50.862;4.696;2022-09-09T09:40:18;17.60;99.90
19870;DHT22;10097;50.862;4.696;2022-09-09T09:42:56;17.60;99.90
19870;DHT22;10097;50.862;4.696;2022-09-09T09:48:09;17.60;99.90
19870;DHT22;10097;50.862;4.696;2022-09-09T09:50:35;17.60;99.90
19870;DHT22;10097;50.862;4.696;2022-09-09T09:53:29;17.50;99.90
19870;DHT22;10097;50.862;4.696;2022-09-09T09:56:01;17.40;99.90
19870;DHT22;10097;50.862;4.696;2022-09-09T09:58:31;17.40;99.90
19870;DHT22;10097;50.862;4.696;2022-09-09T10:00:59;17.70;99.90
19870;DHT22;10097;50.862;4.696;2022-09-09T10:03:27;17.70;99.90
19870;DHT22;10097;50.862;4.696;2022-09-09T10:05:54;17.70;99.90
19870;DHT22;10097;50.862;4.696;2022-09-09T10:08:24;17.70;99.90
19870;DHT22;10097;50.862;4.696;2022-09-09T10:14:08;17.70;99.90
19870;DHT22;10097;50.862;4.696;2022-09-09T10:19:35;17.60;99.90
19870;DHT22;10097;50.862;4.696;2022-09-09T10:22:32;17.60;99.90
19870;DHT22;10097;50.862;4.696;2022-09-09T10:36:29;17.70;99.90
19870;DHT22;10097;50.862;4.696;2022-09-09T10:42:04;17.60;99.90
19870;DHT22;10097;50.862;4.696;2022-09-09T10:45:18;17.60;99.90
19870;DHT22;10097;50.862;4.696;2022-09-09T10:48:12;17.60;99.90
19870;DHT22;10097;50.862;4.696;2022-09-09T10:56:01;17.50;99.90
19870;DHT22;10097;50.862;4.696;2022-09-09T10:58:40;17.50;99.90
19870;DHT22;10097;50.862;4.696;2022-09-09T11:04:09;18.00;99.90
19870;DHT22;10097;50.862;4.696;2022-09-09T11:06:41;18.20;99.90
19870;DHT22;10097;50.862;4.696;2022-09-09T11:09:15;18.40;99.90
19870;DHT22;10097;50.862;4.696;2022-09-09T11:11:50;18.50;99.90
19870;DHT22;10097;50.862;4.696;2022-09-09T11:14:41;18.80;99.90
19870;DHT22;10097;50.862;4.696;2022-09-09T11:17:12;18.70;99.90
19870;DHT22;10097;50.862;4.696;2022-09-09T11:19:40;18.90;99.90
19870;DHT22;10097;50.862;4.696;2022-09-09T11:22:33;18.80;99.90
19870;DHT22;10097;50.862;4.696;2022-09-09T11:25:14;19.00;99.90
19870;DHT22;10097;50.862;4.696;2022-09-09T11:33:37;19.70;99.90
19870;DHT22;10097;50.862;4.696;2022-09-09T11:39:22;19.90;99.90
19870;DHT22;10097;50.862;4.696;2022-09-09T11:41:52;20.40;99.90
19870;DHT22;10097;50.862;4.696;2022-09-09T11:44:29;20.50;99.90
19870;DHT22;10097;50.862;4.696;2022-09-09T11:46:55;20.40;99.90
19870;DHT22;10097;50.862;4.696;2022-09-09T11:49:30;20.50;99.90
19870;DHT22;10097;50.862;4.696;2022-09-09T11:52:39;20.50;99.90
19870;DHT22;10097;50.862;4.696;2022-09-09T11:57:58;20.80;99.90
19870;DHT22;10097;50.862;4.696;2022-09-09T12:03:00;21.00;99.90
19870;DHT22;10097;50.862;4.696;2022-09-09T12:05:39;21.20;99.90
19870;DHT22;10097;50.862;4.696;2022-09-09T12:08:09;21.40;99.90
19870;DHT22;10097;50.862;4.696;2022-09-09T12:10:38;21.70;99.90
19870;DHT22;10097;50.862;4.696;2022-09-09T12:13:20;21.60;99.90
19870;DHT22;10097;50.862;4.696;2022-09-09T12:15:55;21.20;99.90
19870;DHT22;10097;50.862;4.696;2022-09-09T12:18:35;21.20;99.90
19870;DHT22;10097;50.862;4.696;2022-09-09T12:36:55;22.10;99.90
19870;DHT22;10097;50.862;4.696;2022-09-09T12:39:49;22.20;99.90
19870;DHT22;10097;50.862;4.696;2022-09-09T12:42:20;21.80;99.90
19870;DHT22;10097;50.862;4.696;2022-09-09T12:44:56;21.60;99.90
19870;DHT22;10097;50.862;4.696;2022-09-09T12:47:43;21.60;99.90
19870;DHT22;10097;50.862;4.696;2022-09-09T12:50:30;21.50;99.90
19870;DHT22;10097;50.862;4.696;2022-09-09T12:52:59;21.40;99.90
19870;DHT22;10097;50.862;4.696;2022-09-09T12:55:31;21.20;99.90
19870;DHT22;10097;50.862;4.696;2022-09-09T12:58:01;21.00;99.90
19870;DHT22;10097;50.862;4.696;2022-09-09T13:00:31;21.10;99.90
19870;DHT22;10097;50.862;4.696;2022-09-09T13:03:00;21.30;99.90
19870;DHT22;10097;50.862;4.696;2022-09-09T13:05:35;21.50;99.90
19870;DHT22;10097;50.862;4.696;2022-09-09T13:08:03;22.00;99.90
19870;DHT22;10097;50.862;4.696;2022-09-09T13:10:33;22.20;99.90
19870;DHT22;10097;50.862;4.696;2022-09-09T13:12:59;22.40;99.90
19870;DHT22;10097;50.862;4.696;2022-09-09T13:15:29;22.20;99.90
19870;DHT22;10097;50.862;4.696;2022-09-09T13:18:06;22.30;99.90
19870;DHT22;10097;50.862;4.696;2022-09-09T13:20:46;22.30;99.90
19870;DHT22;10097;50.862;4.696;2022-09-09T13:23:21;22.60;99.90
19870;DHT22;10097;50.862;4.696;2022-09-09T13:25:59;22.40;99.90
19870;DHT22;10097;50.862;4.696;2022-09-09T13:28:33;22.10;99.90
19870;DHT22;10097;50.862;4.696;2022-09-09T13:31:04;22.30;99.90
19870;DHT22;10097;50.862;4.696;2022-09-09T13:33:35;22.40;99.90
19870;DHT22;10097;50.862;4.696;2022-09-09T13:36:14;22.20;99.90
19870;DHT22;10097;50.862;4.696;2022-09-09T13:41:36;22.80;99.90
19870;DHT22;10097;50.862;4.696;2022-09-09T13:44:14;22.80;99.90
19870;DHT22;10097;50.862;4.696;2022-09-09T13:46:44;23.00;99.90
19870;DHT22;10097;50.862;4.696;2022-09-09T13:51:50;22.80;99.90
19870;DHT22;10097;50.862;4.696;2022-09-09T13:54:24;23.00;99.90
19870;DHT22;10097;50.862;4.696;2022-09-09T13:56:55;23.20;99.90
19870;DHT22;10097;50.862;4.696;2022-09-09T13:59:28;23.10;99.90
19870;DHT22;10097;50.862;4.696;2022-09-09T14:02:04;23.40;99.90
19870;DHT22;10097;50.862;4.696;2022-09-09T14:04:32;23.40;99.90
19870;DHT22;10097;50.862;4.696;2022-09-09T14:07:18;23.40;99.90
19870;DHT22;10097;50.862;4.696;2022-09-09T14:09:47;23.60;99.90
19870;DHT22;10097;50.862;4.696;2022-09-09T14:12:26;23.60;99.90
19870;DHT22;10097;50.862;4.696;2022-09-09T14:14:55;23.70;99.90
19870;DHT22;10097;50.862;4.696;2022-09-09T14:17:26;23.70;99.90
19870;DHT22;10097;50.862;4.696;2022-09-09T14:20:00;23.70;99.90
19870;DHT22;10097;50.862;4.696;2022-09-09T14:22:36;23.70;99.90
19870;DHT22;10097;50.862;4.696;2022-09-09T14:25:03;23.80;99.90
19870;DHT22;10097;50.862;4.696;2022-09-09T14:27:28;23.70;99.90
19870;DHT22;10097;50.862;4.696;2022-09-09T14:29:57;23.40;99.90
19870;DHT22;10097;50.862;4.696;2022-09-09T14:32:26;23.00;99.90
19870;DHT22;10097;50.862;4.696;2022-09-09T14:34:57;23.20;99.90
19870;DHT22;10097;50.862;4.696;2022-09-09T14:37:23;23.10;99.90
19870;DHT22;10097;50.862;4.696;2022-09-09T14:39:52;23.40;99.90
19870;DHT22;10097;50.862;4.696;2022-09-09T14:42:22;23.20;99.90
19870;DHT22;10097;50.862;4.696;2022-09-09T14:44:51;23.00;99.90
19870;DHT22;10097;50.862;4.696;2022-09-09T14:47:19;22.70;99.90
19870;DHT22;10097;50.862;4.696;2022-09-09T14:49:47;22.50;99.90
19870;DHT22;10097;50.862;4.696;2022-09-09T14:52:15;22.50;99.90
19870;DHT22;10097;50.862;4.696;2022-09-09T14:54:44;22.50;99.90
19870;DHT22;10097;50.862;4.696;2022-09-09T14:57:12;22.10;99.90
19870;DHT22;10097;50.862;4.696;2022-09-09T14:59:46;22.10;99.90
19870;DHT22;10097;50.862;4.696;2022-09-09T15:02:19;22.00;99.90
19870;DHT22;10097;50.862;4.696;2022-09-09T15:04:47;22.20;99.90
19870;DHT22;10097;50.862;4.696;2022-09-09T15:07:15;22.40;99.90
19870;DHT22;10097;50.862;4.696;2022-09-09T15:09:47;22.40;99.90
19870;DHT22;10097;50.862;4.696;2022-09-09T15:12:15;22.70;99.90
19870;DHT22;10097;50.862;4.696;2022-09-09T15:14:44;22.70;99.90
19870;DHT22;10097;50.862;4.696;2022-09-09T15:17:13;23.00;99.90
19870;DHT22;10097;50.862;4.696;2022-09-09T15:19:50;23.10;99.90
19870;DHT22;10097;50.862;4.696;2022-09-09T15:22:21;23.20;99.90
19870;DHT22;10097;50.862;4.696;2022-09-09T15:24:49;23.20;99.90
19870;DHT22;10097;50.862;4.696;2022-09-09T15:27:15;23.00;99.90
19870;DHT22;10097;50.862;4.696;2022-09-09T15:29:51;22.80;99.90
19870;DHT22;10097;50.862;4.696;2022-09-09T15:32:17;22.70;99.90
19870;DHT22;10097;50.862;4.696;2022-09-09T15:34:46;22.50;99.90
19870;DHT22;10097;50.862;4.696;2022-09-09T15:37:29;22.20;99.90
19870;DHT22;10097;50.862;4.696;2022-09-09T15:39:57;22.10;99.90
19870;DHT22;10097;50.862;4.696;2022-09-09T15:42:31;22.40;99.90
19870;DHT22;10097;50.862;4.696;2022-09-09T15:44:59;22.90;99.90
19870;DHT22;10097;50.862;4.696;2022-09-09T15:47:35;23.40;99.90
19870;DHT22;10097;50.862;4.696;2022-09-09T15:50:04;23.80;99.90
19870;DHT22;10097;50.862;4.696;2022-09-09T15:52:34;23.90;99.90
19870;DHT22;10097;50.862;4.696;2022-09-09T15:55:03;23.80;99.90
19870;DHT22;10097;50.862;4.696;2022-09-09T15:57:39;23.60;99.90
19870;DHT22;10097;50.862;4.696;2022-09-09T16:00:07;23.40;99.90
19870;DHT22;10097;50.862;4.696;2022-09-09T16:02:36;22.80;99.90
19870;DHT22;10097;50.862;4.696;2022-09-09T16:05:02;22.80;99.90
19870;DHT22;10097;50.862;4.696;2022-09-09T16:07:45;22.90;99.90
19870;DHT22;10097;50.862;4.696;2022-09-09T16:10:13;23.10;99.90
19870;DHT22;10097;50.862;4.696;2022-09-09T16:12:48;23.00;99.90
19870;DHT22;10097;50.862;4.696;2022-09-09T16:15:17;23.30;99.90
19870;DHT22;10097;50.862;4.696;2022-09-09T16:17:47;23.40;99.90
19870;DHT22;10097;50.862;4.696;2022-09-09T16:20:26;22.90;99.90
19870;DHT22;10097;50.862;4.696;2022-09-09T16:22:54;22.70;99.90
19870;DHT22;10097;50.862;4.696;2022-09-09T16:25:24;22.60;99.90
19870;DHT22;10097;50.862;4.696;2022-09-09T16:27:50;22.20;99.90
19870;DHT22;10097;50.862;4.696;2022-09-09T16:30:29;22.00;99.90
19870;DHT22;10097;50.862;4.696;2022-09-09T16:32:57;21.80;99.90
19870;DHT22;10097;50.862;4.696;2022-09-09T16:35:25;21.70;99.90
19870;DHT22;10097;50.862;4.696;2022-09-09T16:37:54;21.20;99.90
19870;DHT22;10097;50.862;4.696;2022-09-09T16:40:25;21.10;99.90
19870;DHT22;10097;50.862;4.696;2022-09-09T16:42:56;21.10;99.90
19870;DHT22;10097;50.862;4.696;2022-09-09T16:45:32;21.00;99.90
19870;DHT22;10097;50.862;4.696;2022-09-09T16:47:59;20.90;99.90
19870;DHT22;10097;50.862;4.696;2022-09-09T16:50:26;20.90;99.90
19870;DHT22;10097;50.862;4.696;2022-09-09T16:52:59;20.70;99.90
19870;DHT22;10097;50.862;4.696;2022-09-09T16:55:39;20.40;99.90
19870;DHT22;10097;50.862;4.696;2022-09-09T16:58:10;19.60;99.90
19870;DHT22;10097;50.862;4.696;2022-09-09T17:00:43;19.20;99.90
19870;DHT22;10097;50.862;4.696;2022-09-09T17:03:13;18.90;99.90
19870;DHT22;10097;50.862;4.696;2022-09-09T17:05:42;18.50;99.90
19870;DHT22;10097;50.862;4.696;2022-09-09T17:08:10;18.30;99.90
19870;DHT22;10097;50.862;4.696;2022-09-09T17:10:47;18.10;99.90
19870;DHT22;10097;50.862;4.696;2022-09-09T17:13:13;18.10;99.90
19870;DHT22;10097;50.862;4.696;2022-09-09T17:15:40;18.10;99.90
19870;DHT22;10097;50.862;4.696;2022-09-09T17:18:11;18.20;99.90
19870;DHT22;10097;50.862;4.696;2022-09-09T17:20:50;18.00;99.90
19870;DHT22;10097;50.862;4.696;2022-09-09T17:23:20;17.90;99.90
19870;DHT22;10097;50.862;4.696;2022-09-09T17:25:56;17.90;99.90
19870;DHT22;10097;50.862;4.696;2022-09-09T17:28:22;17.80;99.90
19870;DHT22;10097;50.862;4.696;2022-09-09T17:31:01;17.90;99.90
19870;DHT22;10097;50.862;4.696;2022-09-09T17:33:35;17.90;99.90
19870;DHT22;10097;50.862;4.696;2022-09-09T17:36:08;17.90;99.90
19870;DHT22;10097;50.862;4.696;2022-09-09T17:38:49;18.00;99.90
19870;DHT22;10097;50.862;4.696;2022-09-09T17:41:27;18.30;99.90
19870;DHT22;10097;50.862;4.696;2022-09-09T17:43:55;18.40;99.90
19870;DHT22;10097;50.862;4.696;2022-09-09T17:46:31;18.40;99.90
19870;DHT22;10097;50.862;4.696;2022-09-09T17:49:14;18.50;99.90
19870;DHT22;10097;50.862;4.696;2022-09-09T17:51:44;18.40;99.90
19870;DHT22;10097;50.862;4.696;2022-09-09T17:54:22;18.40;99.90
19870;DHT22;10097;50.862;4.696;2022-09-09T17:56:55;18.20;99.90
19870;DHT22;10097;50.862;4.696;2022-09-09T17:59:27;18.00;99.90
19870;DHT22;10097;50.862;4.696;2022-09-09T18:02:03;18.00;99.90
19870;DHT22;10097;50.862;4.696;2022-09-09T18:04:39;17.80;99.90
19870;DHT22;10097;50.862;4.696;2022-09-09T18:07:07;17.80;99.90
19870;DHT22;10097;50.862;4.696;2022-09-09T18:09:33;17.80;99.90